sensor_id;sensor_type;location;lat;lon;timestamp;P1;durP1;ratioP1;P2;durP2;ratioP2
72924;SDS011;61070;50.794;7.054;2023-07-02T00:00:12;6.20;;;2.85;;
72924;SDS011;61070;50.794;7.054;2023-07-02T00:02:38;5.97;;;3.00;;
72924;SDS011;61070;50.794;7.054;2023-07-02T00:05:03;10.73;;;2.90;;
72924;SDS011;61070;50.794;7.054;2023-07-02T00:07:29;6.07;;;2.88;;
72924;SDS011;61070;50.794;7.054;2023-07-02T00:09:55;5.40;;;2.75;;
72924;SDS011;61070;50.794;7.054;2023-07-02T00:12:20;4.65;;;2.88;;
72924;SDS011;61070;50.794;7.054;2023-07-02T00:14:45;5.22;;;2.47;;
72924;SDS011;61070;50.794;7.054;2023-07-02T00:17:11;4.07;;;2.30;;
72924;SDS011;61070;50.794;7.054;2023-07-02T00:19:39;3.97;;;2.72;;
72924;SDS011;61070;50.794;7.054;2023-07-02T00:22:06;5.32;;;2.58;;
72924;SDS011;61070;50.794;7.054;2023-07-02T00:24:35;11.75;;;3.05;;
72924;SDS011;61070;50.794;7.054;2023-07-02T00:27:01;12.30;;;2.50;;
72924;SDS011;61070;50.794;7.054;2023-07-02T00:29:27;4.05;;;2.42;;
72924;SDS011;61070;50.794;7.054;2023-07-02T00:31:52;6.43;;;2.83;;
72924;SDS011;61070;50.794;7.054;2023-07-02T00:34:18;7.47;;;2.83;;
72924;SDS011;61070;50.794;7.054;2023-07-02T00:36:44;7.45;;;2.35;;
72924;SDS011;61070;50.794;7.054;2023-07-02T00:39:09;5.18;;;2.55;;
72924;SDS011;61070;50.794;7.054;2023-07-02T00:41:36;3.45;;;2.55;;
72924;SDS011;61070;50.794;7.054;2023-07-02T00:44:02;7.20;;;2.92;;
72924;SDS011;61070;50.794;7.054;2023-07-02T00:46:27;5.30;;;2.63;;
72924;SDS011;61070;50.794;7.054;2023-07-02T00:48:54;8.52;;;3.22;;
72924;SDS011;61070;50.794;7.054;2023-07-02T00:51:21;8.32;;;2.83;;
72924;SDS011;61070;50.794;7.054;2023-07-02T00:53:51;8.05;;;3.30;;
72924;SDS011;61070;50.794;7.054;2023-07-02T00:56:20;5.15;;;2.47;;
72924;SDS011;61070;50.794;7.054;2023-07-02T00:58:46;8.38;;;2.95;;
72924;SDS011;61070;50.794;7.054;2023-07-02T01:01:16;5.15;;;2.70;;
72924;SDS011;61070;50.794;7.054;2023-07-02T01:03:58;7.15;;;3.03;;
72924;SDS011;61070;50.794;7.054;2023-07-02T01:06:34;6.13;;;2.55;;
72924;SDS011;61070;50.794;7.054;2023-07-02T01:09:02;6.13;;;3.15;;
72924;SDS011;61070;50.794;7.054;2023-07-02T01:11:33;8.23;;;3.38;;
72924;SDS011;61070;50.794;7.054;2023-07-02T01:14:04;6.82;;;3.30;;
72924;SDS011;61070;50.794;7.054;2023-07-02T01:16:41;7.85;;;3.47;;
72924;SDS011;61070;50.794;7.054;2023-07-02T01:21:57;9.55;;;3.80;;
72924;SDS011;61070;50.794;7.054;2023-07-02T01:24:23;11.88;;;4.03;;
72924;SDS011;61070;50.794;7.054;2023-07-02T01:26:48;8.98;;;4.15;;
72924;SDS011;61070;50.794;7.054;2023-07-02T01:29:17;10.30;;;3.90;;
72924;SDS011;61070;50.794;7.054;2023-07-02T01:31:43;8.82;;;4.65;;
72924;SDS011;61070;50.794;7.054;2023-07-02T01:34:08;15.80;;;4.30;;
72924;SDS011;61070;50.794;7.054;2023-07-02T01:36:34;13.15;;;4.72;;
72924;SDS011;61070;50.794;7.054;2023-07-02T01:39:00;14.10;;;5.22;;
72924;SDS011;61070;50.794;7.054;2023-07-02T01:41:25;12.85;;;4.95;;
72924;SDS011;61070;50.794;7.054;2023-07-02T01:43:50;14.52;;;4.93;;
72924;SDS011;61070;50.794;7.054;2023-07-02T01:46:16;13.27;;;5.65;;
72924;SDS011;61070;50.794;7.054;2023-07-02T01:48:41;9.93;;;4.70;;
72924;SDS011;61070;50.794;7.054;2023-07-02T01:51:06;7.60;;;4.47;;
72924;SDS011;61070;50.794;7.054;2023-07-02T01:53:31;13.68;;;4.90;;
72924;SDS011;61070;50.794;7.054;2023-07-02T01:55:57;11.75;;;5.68;;
72924;SDS011;61070;50.794;7.054;2023-07-02T01:58:23;12.52;;;5.40;;
72924;SDS011;61070;50.794;7.054;2023-07-02T02:00:48;13.45;;;5.70;;
72924;SDS011;61070;50.794;7.054;2023-07-02T02:03:13;12.70;;;4.68;;
72924;SDS011;61070;50.794;7.054;2023-07-02T02:05:39;11.18;;;5.50;;
72924;SDS011;61070;50.794;7.054;2023-07-02T02:08:04;15.43;;;6.35;;
72924;SDS011;61070;50.794;7.054;2023-07-02T02:10:29;12.98;;;5.28;;
72924;SDS011;61070;50.794;7.054;2023-07-02T02:12:54;14.00;;;5.57;;
72924;SDS011;61070;50.794;7.054;2023-07-02T02:15:20;13.13;;;5.45;;
72924;SDS011;61070;50.794;7.054;2023-07-02T02:17:45;21.60;;;6.10;;
72924;SDS011;61070;50.794;7.054;2023-07-02T02:20:11;19.50;;;5.95;;
72924;SDS011;61070;50.794;7.054;2023-07-02T02:22:36;15.48;;;5.75;;
72924;SDS011;61070;50.794;7.054;2023-07-02T02:25:02;15.30;;;6.35;;
72924;SDS011;61070;50.794;7.054;2023-07-02T02:27:28;16.90;;;7.15;;
72924;SDS011;61070;50.794;7.054;2023-07-02T02:29:54;19.35;;;6.82;;
72924;SDS011;61070;50.794;7.054;2023-07-02T02:32:19;16.17;;;6.65;;
72924;SDS011;61070;50.794;7.054;2023-07-02T02:34:46;19.17;;;7.00;;
72924;SDS011;61070;50.794;7.054;2023-07-02T02:37:12;24.63;;;8.68;;
72924;SDS011;61070;50.794;7.054;2023-07-02T02:39:37;20.70;;;7.68;;
72924;SDS011;61070;50.794;7.054;2023-07-02T02:42:02;16.35;;;7.93;;
72924;SDS011;61070;50.794;7.054;2023-07-02T02:44:28;15.25;;;7.55;;
72924;SDS011;61070;50.794;7.054;2023-07-02T02:46:54;24.17;;;8.73;;
72924;SDS011;61070;50.794;7.054;2023-07-02T02:49:19;18.33;;;9.15;;
72924;SDS011;61070;50.794;7.054;2023-07-02T02:51:44;22.15;;;8.85;;
72924;SDS011;61070;50.794;7.054;2023-07-02T02:54:10;19.25;;;8.85;;
72924;SDS011;61070;50.794;7.054;2023-07-02T02:56:35;28.92;;;9.68;;
72924;SDS011;61070;50.794;7.054;2023-07-02T02:59:00;21.95;;;9.07;;
72924;SDS011;61070;50.794;7.054;2023-07-02T03:01:26;20.95;;;9.80;;
72924;SDS011;61070;50.794;7.054;2023-07-02T03:03:57;30.73;;;10.38;;
72924;SDS011;61070;50.794;7.054;2023-07-02T03:06:23;17.17;;;9.05;;
72924;SDS011;61070;50.794;7.054;2023-07-02T03:08:48;25.05;;;10.23;;
72924;SDS011;61070;50.794;7.054;2023-07-02T03:11:14;27.90;;;10.13;;
72924;SDS011;61070;50.794;7.054;2023-07-02T03:13:39;22.33;;;9.05;;
72924;SDS011;61070;50.794;7.054;2023-07-02T03:16:04;23.40;;;9.60;;
72924;SDS011;61070;50.794;7.054;2023-07-02T03:18:30;22.60;;;9.65;;
72924;SDS011;61070;50.794;7.054;2023-07-02T03:20:55;28.10;;;10.85;;
72924;SDS011;61070;50.794;7.054;2023-07-02T03:23:21;28.13;;;10.50;;
72924;SDS011;61070;50.794;7.054;2023-07-02T03:25:46;21.67;;;9.20;;
72924;SDS011;61070;50.794;7.054;2023-07-02T03:28:11;22.98;;;10.02;;
72924;SDS011;61070;50.794;7.054;2023-07-02T03:30:36;27.42;;;10.88;;
72924;SDS011;61070;50.794;7.054;2023-07-02T03:33:02;30.95;;;11.48;;
72924;SDS011;61070;50.794;7.054;2023-07-02T03:35:27;26.30;;;9.90;;
72924;SDS011;61070;50.794;7.054;2023-07-02T03:37:52;34.92;;;12.13;;
72924;SDS011;61070;50.794;7.054;2023-07-02T03:40:18;26.95;;;10.85;;
72924;SDS011;61070;50.794;7.054;2023-07-02T03:42:43;35.38;;;11.85;;
72924;SDS011;61070;50.794;7.054;2023-07-02T03:45:08;30.83;;;11.95;;
72924;SDS011;61070;50.794;7.054;2023-07-02T03:47:34;31.15;;;11.90;;
72924;SDS011;61070;50.794;7.054;2023-07-02T03:49:59;29.88;;;11.77;;
72924;SDS011;61070;50.794;7.054;2023-07-02T03:52:25;32.08;;;14.13;;
72924;SDS011;61070;50.794;7.054;2023-07-02T03:54:50;31.50;;;12.15;;
72924;SDS011;61070;50.794;7.054;2023-07-02T03:57:15;34.30;;;13.05;;
72924;SDS011;61070;50.794;7.054;2023-07-02T03:59:41;28.02;;;12.45;;
72924;SDS011;61070;50.794;7.054;2023-07-02T04:02:06;30.17;;;13.07;;
72924;SDS011;61070;50.794;7.054;2023-07-02T04:04:31;26.60;;;12.68;;
72924;SDS011;61070;50.794;7.054;2023-07-02T04:06:56;29.95;;;13.00;;
72924;SDS011;61070;50.794;7.054;2023-07-02T04:09:22;37.53;;;13.73;;
72924;SDS011;61070;50.794;7.054;2023-07-02T04:11:47;41.50;;;14.07;;
72924;SDS011;61070;50.794;7.054;2023-07-02T04:14:12;42.10;;;12.82;;
72924;SDS011;61070;50.794;7.054;2023-07-02T04:16:37;30.42;;;13.70;;
72924;SDS011;61070;50.794;7.054;2023-07-02T04:19:03;34.15;;;13.68;;
72924;SDS011;61070;50.794;7.054;2023-07-02T04:21:28;40.03;;;14.35;;
72924;SDS011;61070;50.794;7.054;2023-07-02T04:23:53;34.42;;;13.90;;
72924;SDS011;61070;50.794;7.054;2023-07-02T04:26:19;29.08;;;13.40;;
72924;SDS011;61070;50.794;7.054;2023-07-02T04:28:44;32.63;;;15.18;;
72924;SDS011;61070;50.794;7.054;2023-07-02T04:31:10;36.83;;;14.50;;
72924;SDS011;61070;50.794;7.054;2023-07-02T04:33:35;35.15;;;15.23;;
72924;SDS011;61070;50.794;7.054;2023-07-02T04:36:01;35.30;;;14.63;;
72924;SDS011;61070;50.794;7.054;2023-07-02T04:38:28;42.88;;;15.32;;
72924;SDS011;61070;50.794;7.054;2023-07-02T04:40:53;38.67;;;15.32;;
72924;SDS011;61070;50.794;7.054;2023-07-02T04:43:18;41.47;;;15.25;;
72924;SDS011;61070;50.794;7.054;2023-07-02T04:45:43;39.55;;;15.40;;
72924;SDS011;61070;50.794;7.054;2023-07-02T04:48:09;40.33;;;17.17;;
72924;SDS011;61070;50.794;7.054;2023-07-02T04:50:34;43.63;;;16.42;;
72924;SDS011;61070;50.794;7.054;2023-07-02T04:53:00;40.60;;;15.98;;
72924;SDS011;61070;50.794;7.054;2023-07-02T04:55:25;37.65;;;16.15;;
72924;SDS011;61070;50.794;7.054;2023-07-02T04:57:50;44.05;;;17.05;;
72924;SDS011;61070;50.794;7.054;2023-07-02T05:00:16;38.58;;;18.45;;
72924;SDS011;61070;50.794;7.054;2023-07-02T05:02:42;45.20;;;17.80;;
72924;SDS011;61070;50.794;7.054;2023-07-02T05:05:07;53.15;;;18.23;;
72924;SDS011;61070;50.794;7.054;2023-07-02T05:07:32;45.28;;;17.83;;
72924;SDS011;61070;50.794;7.054;2023-07-02T05:09:58;43.30;;;17.98;;
72924;SDS011;61070;50.794;7.054;2023-07-02T05:12:23;52.97;;;19.35;;
72924;SDS011;61070;50.794;7.054;2023-07-02T05:14:49;47.25;;;18.08;;
72924;SDS011;61070;50.794;7.054;2023-07-02T05:17:14;44.42;;;19.35;;
72924;SDS011;61070;50.794;7.054;2023-07-02T05:19:40;56.75;;;20.27;;
72924;SDS011;61070;50.794;7.054;2023-07-02T05:22:06;46.80;;;19.60;;
72924;SDS011;61070;50.794;7.054;2023-07-02T05:24:31;51.72;;;18.80;;
72924;SDS011;61070;50.794;7.054;2023-07-02T05:26:57;52.35;;;20.80;;
72924;SDS011;61070;50.794;7.054;2023-07-02T05:29:22;53.60;;;21.58;;
72924;SDS011;61070;50.794;7.054;2023-07-02T05:31:47;51.10;;;21.15;;
72924;SDS011;61070;50.794;7.054;2023-07-02T05:34:12;45.15;;;19.90;;
72924;SDS011;61070;50.794;7.054;2023-07-02T05:36:38;57.70;;;22.20;;
72924;SDS011;61070;50.794;7.054;2023-07-02T05:39:03;51.15;;;21.75;;
72924;SDS011;61070;50.794;7.054;2023-07-02T05:41:28;54.70;;;23.50;;
72924;SDS011;61070;50.794;7.054;2023-07-02T05:43:59;49.05;;;22.20;;
72924;SDS011;61070;50.794;7.054;2023-07-02T05:46:25;55.70;;;21.70;;
72924;SDS011;61070;50.794;7.054;2023-07-02T05:48:50;50.55;;;21.83;;
72924;SDS011;61070;50.794;7.054;2023-07-02T05:51:22;66.50;;;23.00;;
72924;SDS011;61070;50.794;7.054;2023-07-02T05:53:50;60.33;;;23.38;;
72924;SDS011;61070;50.794;7.054;2023-07-02T05:56:16;55.05;;;22.55;;
72924;SDS011;61070;50.794;7.054;2023-07-02T05:58:42;55.22;;;23.20;;
72924;SDS011;61070;50.794;7.054;2023-07-02T06:01:07;50.28;;;22.02;;
72924;SDS011;61070;50.794;7.054;2023-07-02T06:03:33;63.13;;;24.33;;
72924;SDS011;61070;50.794;7.054;2023-07-02T06:05:58;63.28;;;24.13;;
72924;SDS011;61070;50.794;7.054;2023-07-02T06:08:24;52.45;;;22.90;;
72924;SDS011;61070;50.794;7.054;2023-07-02T06:10:49;60.05;;;25.25;;
72924;SDS011;61070;50.794;7.054;2023-07-02T06:13:15;56.72;;;24.15;;
72924;SDS011;61070;50.794;7.054;2023-07-02T06:15:40;55.17;;;23.63;;
72924;SDS011;61070;50.794;7.054;2023-07-02T06:18:06;58.95;;;24.65;;
72924;SDS011;61070;50.794;7.054;2023-07-02T06:20:31;61.45;;;24.67;;
72924;SDS011;61070;50.794;7.054;2023-07-02T06:22:57;70.82;;;24.88;;
72924;SDS011;61070;50.794;7.054;2023-07-02T06:25:22;67.68;;;24.90;;
72924;SDS011;61070;50.794;7.054;2023-07-02T06:27:48;58.20;;;23.27;;
72924;SDS011;61070;50.794;7.054;2023-07-02T06:30:13;62.58;;;24.40;;
72924;SDS011;61070;50.794;7.054;2023-07-02T06:32:38;53.97;;;24.23;;
72924;SDS011;61070;50.794;7.054;2023-07-02T06:35:04;60.28;;;23.35;;
72924;SDS011;61070;50.794;7.054;2023-07-02T06:37:31;58.50;;;23.13;;
72924;SDS011;61070;50.794;7.054;2023-07-02T06:39:57;49.35;;;21.05;;
72924;SDS011;61070;50.794;7.054;2023-07-02T06:42:22;57.33;;;22.92;;
72924;SDS011;61070;50.794;7.054;2023-07-02T06:44:47;63.20;;;22.70;;
72924;SDS011;61070;50.794;7.054;2023-07-02T06:47:13;51.22;;;22.48;;
72924;SDS011;61070;50.794;7.054;2023-07-02T06:49:38;48.42;;;22.75;;
72924;SDS011;61070;50.794;7.054;2023-07-02T06:52:03;55.72;;;22.83;;
72924;SDS011;61070;50.794;7.054;2023-07-02T06:54:29;52.63;;;21.33;;
72924;SDS011;61070;50.794;7.054;2023-07-02T06:56:54;49.80;;;20.17;;
72924;SDS011;61070;50.794;7.054;2023-07-02T06:59:20;53.63;;;20.58;;
72924;SDS011;61070;50.794;7.054;2023-07-02T07:01:46;53.15;;;20.85;;
72924;SDS011;61070;50.794;7.054;2023-07-02T07:04:11;54.15;;;22.02;;
72924;SDS011;61070;50.794;7.054;2023-07-02T07:06:37;49.92;;;19.45;;
72924;SDS011;61070;50.794;7.054;2023-07-02T07:09:03;48.45;;;21.70;;
72924;SDS011;61070;50.794;7.054;2023-07-02T07:11:28;49.47;;;21.88;;
72924;SDS011;61070;50.794;7.054;2023-07-02T07:13:53;47.35;;;21.83;;
72924;SDS011;61070;50.794;7.054;2023-07-02T07:16:19;45.03;;;20.63;;
72924;SDS011;61070;50.794;7.054;2023-07-02T07:18:44;45.90;;;21.23;;
72924;SDS011;61070;50.794;7.054;2023-07-02T07:21:10;53.10;;;21.95;;
72924;SDS011;61070;50.794;7.054;2023-07-02T07:23:35;46.28;;;20.83;;
72924;SDS011;61070;50.794;7.054;2023-07-02T07:26:01;53.65;;;20.55;;
72924;SDS011;61070;50.794;7.054;2023-07-02T07:28:26;43.95;;;18.65;;
72924;SDS011;61070;50.794;7.054;2023-07-02T07:30:51;46.80;;;20.33;;
72924;SDS011;61070;50.794;7.054;2023-07-02T07:33:16;55.53;;;20.50;;
72924;SDS011;61070;50.794;7.054;2023-07-02T07:35:45;44.15;;;18.58;;
72924;SDS011;61070;50.794;7.054;2023-07-02T07:38:12;41.67;;;16.67;;
72924;SDS011;61070;50.794;7.054;2023-07-02T07:40:38;39.05;;;16.02;;
72924;SDS011;61070;50.794;7.054;2023-07-02T07:43:03;39.40;;;17.52;;
72924;SDS011;61070;50.794;7.054;2023-07-02T07:45:29;39.08;;;17.65;;
72924;SDS011;61070;50.794;7.054;2023-07-02T07:47:54;42.13;;;19.08;;
72924;SDS011;61070;50.794;7.054;2023-07-02T07:50:19;42.08;;;17.38;;
72924;SDS011;61070;50.794;7.054;2023-07-02T07:52:45;46.03;;;18.15;;
72924;SDS011;61070;50.794;7.054;2023-07-02T07:55:10;40.90;;;16.98;;
72924;SDS011;61070;50.794;7.054;2023-07-02T07:57:36;44.33;;;19.48;;
72924;SDS011;61070;50.794;7.054;2023-07-02T08:00:05;45.42;;;18.45;;
72924;SDS011;61070;50.794;7.054;2023-07-02T08:02:37;40.70;;;17.50;;
72924;SDS011;61070;50.794;7.054;2023-07-02T08:05:03;34.70;;;16.30;;
72924;SDS011;61070;50.794;7.054;2023-07-02T08:07:32;36.90;;;16.25;;
72924;SDS011;61070;50.794;7.054;2023-07-02T08:09:58;35.38;;;15.52;;
72924;SDS011;61070;50.794;7.054;2023-07-02T08:12:23;37.83;;;15.57;;
72924;SDS011;61070;50.794;7.054;2023-07-02T08:14:49;40.58;;;16.13;;
72924;SDS011;61070;50.794;7.054;2023-07-02T08:17:14;36.47;;;15.82;;
72924;SDS011;61070;50.794;7.054;2023-07-02T08:19:40;41.95;;;15.55;;
72924;SDS011;61070;50.794;7.054;2023-07-02T08:22:05;37.45;;;16.25;;
72924;SDS011;61070;50.794;7.054;2023-07-02T08:24:30;36.10;;;16.60;;
72924;SDS011;61070;50.794;7.054;2023-07-02T08:26:56;42.75;;;15.75;;
72924;SDS011;61070;50.794;7.054;2023-07-02T08:29:22;33.17;;;16.13;;
72924;SDS011;61070;50.794;7.054;2023-07-02T08:31:48;44.03;;;15.98;;
72924;SDS011;61070;50.794;7.054;2023-07-02T08:34:13;35.05;;;16.30;;
72924;SDS011;61070;50.794;7.054;2023-07-02T08:36:38;29.55;;;14.05;;
72924;SDS011;61070;50.794;7.054;2023-07-02T08:39:04;35.72;;;15.43;;
72924;SDS011;61070;50.794;7.054;2023-07-02T08:41:29;35.58;;;14.70;;
72924;SDS011;61070;50.794;7.054;2023-07-02T08:43:56;33.60;;;15.65;;
72924;SDS011;61070;50.794;7.054;2023-07-02T08:46:23;36.80;;;14.82;;
72924;SDS011;61070;50.794;7.054;2023-07-02T08:48:48;36.78;;;15.10;;
72924;SDS011;61070;50.794;7.054;2023-07-02T08:51:14;35.50;;;15.15;;
72924;SDS011;61070;50.794;7.054;2023-07-02T08:53:39;32.65;;;14.77;;
72924;SDS011;61070;50.794;7.054;2023-07-02T08:56:05;33.17;;;14.35;;
72924;SDS011;61070;50.794;7.054;2023-07-02T08:58:30;34.58;;;15.13;;
72924;SDS011;61070;50.794;7.054;2023-07-02T09:01:08;31.02;;;14.98;;
72924;SDS011;61070;50.794;7.054;2023-07-02T09:03:38;29.20;;;14.40;;
72924;SDS011;61070;50.794;7.054;2023-07-02T09:06:04;36.85;;;15.73;;
72924;SDS011;61070;50.794;7.054;2023-07-02T09:08:31;42.40;;;16.42;;
72924;SDS011;61070;50.794;7.054;2023-07-02T09:11:05;40.35;;;16.05;;
72924;SDS011;61070;50.794;7.054;2023-07-02T09:13:31;42.55;;;15.40;;
72924;SDS011;61070;50.794;7.054;2023-07-02T09:16:06;37.97;;;14.68;;
72924;SDS011;61070;50.794;7.054;2023-07-02T09:18:31;36.38;;;14.73;;
72924;SDS011;61070;50.794;7.054;2023-07-02T09:20:57;33.55;;;15.45;;
72924;SDS011;61070;50.794;7.054;2023-07-02T09:23:22;38.88;;;15.70;;
72924;SDS011;61070;50.794;7.054;2023-07-02T09:25:47;40.95;;;15.15;;
72924;SDS011;61070;50.794;7.054;2023-07-02T09:28:20;35.13;;;15.88;;
72924;SDS011;61070;50.794;7.054;2023-07-02T09:30:53;37.53;;;17.05;;
72924;SDS011;61070;50.794;7.054;2023-07-02T09:33:25;32.80;;;16.27;;
72924;SDS011;61070;50.794;7.054;2023-07-02T09:35:52;41.63;;;17.02;;
72924;SDS011;61070;50.794;7.054;2023-07-02T09:38:17;34.97;;;15.48;;
72924;SDS011;61070;50.794;7.054;2023-07-02T09:40:45;31.75;;;16.33;;
72924;SDS011;61070;50.794;7.054;2023-07-02T09:43:12;35.53;;;16.05;;
72924;SDS011;61070;50.794;7.054;2023-07-02T09:45:40;43.22;;;18.17;;
72924;SDS011;61070;50.794;7.054;2023-07-02T09:48:08;37.78;;;17.60;;
72924;SDS011;61070;50.794;7.054;2023-07-02T09:50:34;38.78;;;16.67;;
72924;SDS011;61070;50.794;7.054;2023-07-02T09:53:02;38.85;;;15.05;;
72924;SDS011;61070;50.794;7.054;2023-07-02T09:55:28;34.60;;;16.63;;
72924;SDS011;61070;50.794;7.054;2023-07-02T09:57:53;39.50;;;14.82;;
72924;SDS011;61070;50.794;7.054;2023-07-02T10:00:18;37.80;;;14.75;;
72924;SDS011;61070;50.794;7.054;2023-07-02T10:02:48;37.17;;;14.82;;
72924;SDS011;61070;50.794;7.054;2023-07-02T10:07:52;30.25;;;15.52;;
72924;SDS011;61070;50.794;7.054;2023-07-02T10:10:31;36.63;;;14.65;;
72924;SDS011;61070;50.794;7.054;2023-07-02T10:12:57;41.83;;;14.18;;
72924;SDS011;61070;50.794;7.054;2023-07-02T10:15:26;34.92;;;14.82;;
72924;SDS011;61070;50.794;7.054;2023-07-02T10:18:01;33.28;;;13.63;;
72924;SDS011;61070;50.794;7.054;2023-07-02T10:20:32;35.40;;;15.02;;
72924;SDS011;61070;50.794;7.054;2023-07-02T10:23:03;35.72;;;14.43;;
72924;SDS011;61070;50.794;7.054;2023-07-02T10:25:30;34.33;;;13.98;;
72924;SDS011;61070;50.794;7.054;2023-07-02T10:27:57;30.20;;;13.88;;
72924;SDS011;61070;50.794;7.054;2023-07-02T10:30:34;31.10;;;14.73;;
72924;SDS011;61070;50.794;7.054;2023-07-02T10:33:09;33.15;;;13.85;;
72924;SDS011;61070;50.794;7.054;2023-07-02T10:35:35;30.38;;;14.23;;
72924;SDS011;61070;50.794;7.054;2023-07-02T10:38:00;32.55;;;15.43;;
72924;SDS011;61070;50.794;7.054;2023-07-02T10:40:26;30.95;;;13.77;;
72924;SDS011;61070;50.794;7.054;2023-07-02T10:42:52;29.80;;;14.30;;
72924;SDS011;61070;50.794;7.054;2023-07-02T10:45:18;29.75;;;15.13;;
72924;SDS011;61070;50.794;7.054;2023-07-02T10:47:44;34.47;;;15.43;;
72924;SDS011;61070;50.794;7.054;2023-07-02T10:52:40;38.23;;;14.53;;
72924;SDS011;61070;50.794;7.054;2023-07-02T10:55:05;26.60;;;13.93;;
72924;SDS011;61070;50.794;7.054;2023-07-02T10:57:31;31.10;;;14.80;;
72924;SDS011;61070;50.794;7.054;2023-07-02T11:00:06;36.00;;;15.25;;
72924;SDS011;61070;50.794;7.054;2023-07-02T11:02:35;29.55;;;13.45;;
72924;SDS011;61070;50.794;7.054;2023-07-02T11:05:01;28.80;;;14.02;;
72924;SDS011;61070;50.794;7.054;2023-07-02T11:07:27;32.17;;;13.02;;
72924;SDS011;61070;50.794;7.054;2023-07-02T11:09:52;28.15;;;13.18;;
72924;SDS011;61070;50.794;7.054;2023-07-02T11:12:18;27.45;;;12.68;;
72924;SDS011;61070;50.794;7.054;2023-07-02T11:14:51;28.27;;;12.82;;
72924;SDS011;61070;50.794;7.054;2023-07-02T11:17:24;30.90;;;13.70;;
72924;SDS011;61070;50.794;7.054;2023-07-02T11:19:50;27.30;;;12.77;;
72924;SDS011;61070;50.794;7.054;2023-07-02T11:22:16;32.20;;;12.95;;
72924;SDS011;61070;50.794;7.054;2023-07-02T11:24:41;29.42;;;13.15;;
72924;SDS011;61070;50.794;7.054;2023-07-02T11:27:07;30.27;;;13.35;;
72924;SDS011;61070;50.794;7.054;2023-07-02T11:29:33;27.85;;;12.98;;
72924;SDS011;61070;50.794;7.054;2023-07-02T11:32:08;31.08;;;14.15;;
72924;SDS011;61070;50.794;7.054;2023-07-02T11:34:35;36.35;;;15.35;;
72924;SDS011;61070;50.794;7.054;2023-07-02T11:37:01;29.83;;;13.77;;
72924;SDS011;61070;50.794;7.054;2023-07-02T11:39:27;34.53;;;15.77;;
72924;SDS011;61070;50.794;7.054;2023-07-02T11:41:52;31.23;;;15.10;;
72924;SDS011;61070;50.794;7.054;2023-07-02T11:44:18;35.80;;;15.23;;
72924;SDS011;61070;50.794;7.054;2023-07-02T11:46:43;30.02;;;12.85;;
72924;SDS011;61070;50.794;7.054;2023-07-02T11:49:09;29.52;;;14.38;;
72924;SDS011;61070;50.794;7.054;2023-07-02T11:51:35;32.70;;;13.45;;
72924;SDS011;61070;50.794;7.054;2023-07-02T11:54:02;33.50;;;13.48;;
72924;SDS011;61070;50.794;7.054;2023-07-02T11:56:28;29.38;;;13.43;;
72924;SDS011;61070;50.794;7.054;2023-07-02T11:58:53;30.52;;;14.98;;
72924;SDS011;61070;50.794;7.054;2023-07-02T12:01:19;34.65;;;14.80;;
72924;SDS011;61070;50.794;7.054;2023-07-02T12:03:44;31.73;;;14.03;;
72924;SDS011;61070;50.794;7.054;2023-07-02T12:06:10;32.72;;;13.88;;
72924;SDS011;61070;50.794;7.054;2023-07-02T12:08:35;34.55;;;14.25;;
72924;SDS011;61070;50.794;7.054;2023-07-02T12:11:01;27.98;;;13.63;;
72924;SDS011;61070;50.794;7.054;2023-07-02T12:13:26;32.30;;;14.13;;
72924;SDS011;61070;50.794;7.054;2023-07-02T12:15:51;29.65;;;13.80;;
72924;SDS011;61070;50.794;7.054;2023-07-02T12:18:17;27.20;;;12.90;;
72924;SDS011;61070;50.794;7.054;2023-07-02T12:20:42;24.70;;;12.18;;
72924;SDS011;61070;50.794;7.054;2023-07-02T12:23:08;33.15;;;13.48;;
72924;SDS011;61070;50.794;7.054;2023-07-02T12:25:35;31.58;;;13.70;;
72924;SDS011;61070;50.794;7.054;2023-07-02T12:28:02;26.63;;;13.00;;
72924;SDS011;61070;50.794;7.054;2023-07-02T12:30:28;33.47;;;14.05;;
72924;SDS011;61070;50.794;7.054;2023-07-02T12:32:53;29.27;;;13.40;;
72924;SDS011;61070;50.794;7.054;2023-07-02T12:35:18;33.28;;;13.52;;
72924;SDS011;61070;50.794;7.054;2023-07-02T12:37:49;30.10;;;14.05;;
72924;SDS011;61070;50.794;7.054;2023-07-02T12:40:15;28.13;;;13.50;;
72924;SDS011;61070;50.794;7.054;2023-07-02T12:42:42;35.08;;;13.00;;
72924;SDS011;61070;50.794;7.054;2023-07-02T12:45:08;31.83;;;13.48;;
72924;SDS011;61070;50.794;7.054;2023-07-02T12:47:35;33.90;;;13.68;;
72924;SDS011;61070;50.794;7.054;2023-07-02T12:50:01;30.95;;;12.02;;
72924;SDS011;61070;50.794;7.054;2023-07-02T12:52:27;32.20;;;13.32;;
72924;SDS011;61070;50.794;7.054;2023-07-02T12:54:53;30.15;;;12.18;;
72924;SDS011;61070;50.794;7.054;2023-07-02T12:57:18;32.67;;;13.20;;
72924;SDS011;61070;50.794;7.054;2023-07-02T12:59:44;32.67;;;12.63;;
72924;SDS011;61070;50.794;7.054;2023-07-02T13:02:09;33.30;;;12.85;;
72924;SDS011;61070;50.794;7.054;2023-07-02T13:04:35;26.10;;;12.10;;
72924;SDS011;61070;50.794;7.054;2023-07-02T13:07:01;32.83;;;12.88;;
72924;SDS011;61070;50.794;7.054;2023-07-02T13:09:26;25.17;;;13.00;;
72924;SDS011;61070;50.794;7.054;2023-07-02T13:11:51;28.50;;;12.33;;
72924;SDS011;61070;50.794;7.054;2023-07-02T13:14:16;30.08;;;12.73;;
72924;SDS011;61070;50.794;7.054;2023-07-02T13:16:42;35.38;;;13.50;;
72924;SDS011;61070;50.794;7.054;2023-07-02T13:19:07;26.50;;;11.93;;
72924;SDS011;61070;50.794;7.054;2023-07-02T13:21:33;32.50;;;13.63;;
72924;SDS011;61070;50.794;7.054;2023-07-02T13:23:58;28.20;;;12.75;;
72924;SDS011;61070;50.794;7.054;2023-07-02T13:26:23;30.48;;;12.63;;
72924;SDS011;61070;50.794;7.054;2023-07-02T13:28:49;27.63;;;12.93;;
72924;SDS011;61070;50.794;7.054;2023-07-02T13:31:14;25.33;;;12.70;;
72924;SDS011;61070;50.794;7.054;2023-07-02T13:33:39;32.38;;;13.20;;
72924;SDS011;61070;50.794;7.054;2023-07-02T13:36:05;30.55;;;13.00;;
72924;SDS011;61070;50.794;7.054;2023-07-02T13:38:31;27.50;;;11.75;;
72924;SDS011;61070;50.794;7.054;2023-07-02T13:40:56;34.85;;;13.23;;
72924;SDS011;61070;50.794;7.054;2023-07-02T13:43:22;29.38;;;13.80;;
72924;SDS011;61070;50.794;7.054;2023-07-02T13:45:47;34.95;;;12.77;;
72924;SDS011;61070;50.794;7.054;2023-07-02T13:48:12;26.02;;;12.77;;
72924;SDS011;61070;50.794;7.054;2023-07-02T13:50:38;26.17;;;12.13;;
72924;SDS011;61070;50.794;7.054;2023-07-02T13:53:03;30.58;;;13.27;;
72924;SDS011;61070;50.794;7.054;2023-07-02T13:55:28;25.20;;;12.60;;
72924;SDS011;61070;50.794;7.054;2023-07-02T13:57:55;30.08;;;13.38;;
72924;SDS011;61070;50.794;7.054;2023-07-02T14:00:22;33.70;;;12.65;;
72924;SDS011;61070;50.794;7.054;2023-07-02T14:02:47;28.55;;;13.68;;
72924;SDS011;61070;50.794;7.054;2023-07-02T14:05:12;28.43;;;12.93;;
72924;SDS011;61070;50.794;7.054;2023-07-02T14:07:37;31.17;;;13.75;;
72924;SDS011;61070;50.794;7.054;2023-07-02T14:10:03;27.13;;;12.00;;
72924;SDS011;61070;50.794;7.054;2023-07-02T14:12:28;31.60;;;12.68;;
72924;SDS011;61070;50.794;7.054;2023-07-02T14:14:54;34.30;;;13.67;;
72924;SDS011;61070;50.794;7.054;2023-07-02T14:17:19;27.75;;;12.70;;
72924;SDS011;61070;50.794;7.054;2023-07-02T14:19:44;28.70;;;13.00;;
72924;SDS011;61070;50.794;7.054;2023-07-02T14:22:10;30.88;;;12.75;;
72924;SDS011;61070;50.794;7.054;2023-07-02T14:24:35;28.85;;;12.30;;
72924;SDS011;61070;50.794;7.054;2023-07-02T14:27:00;25.48;;;11.13;;